Time,TemperatureF,DewpointF,PressureIn,WindDirection,WindDirectionDegrees,WindSpeedMPH,WindSpeedGustMPH,Humidity,HourlyPrecipIn,Conditions,Clouds,dailyrainin,SolarRadiationWatts/m^2,SoftwareType,DateUTC
2013-05-27 00:01:00,47.9,40.4,30.28,NE,35,0.7,1.1,75,0.00,BKN,,0.00,0.0,WeatherDisplay:10.37,2013-05-27 04:01:00,
2013-05-27 00:06:00,47.9,40.4,30.28,NE,40,0.7,2.3,75,0.00,BKN,,0.00,0.0,WeatherDisplay:10.37,2013-05-27 04:06:00,
2013-05-27 00:11:00,47.8,40.3,30.29,NE,46,0.4,1.1,75,0.00,BKN,,0.00,0.0,WeatherDisplay:10.37,2013-05-27 04:11:00,
2013-05-27 00:16:00,47.8,40.3,30.29,ENE,69,0.5,1.1,75,0.00,BKN,,0.00,0.0,WeatherDisplay:10.37,2013-05-27 04:16:00,
2013-05-27 00:21:00,47.8,40.3,30.29,ENE,69,0.6,1.1,75,0.00,BKN,,0.00,0.0,WeatherDisplay:10.37,2013-05-27 04:21:00,
2013-05-27 00:26:00,47.7,40.5,30.28,ENE,78,0.4,1.1,76,0.00,BKN,,0.00,0.0,WeatherDisplay:10.37,2013-05-27 04:26:00,
2013-05-27 00:31:00,47.7,40.5,30.29,ENE,78,0.9,2.3,76,0.00,BKN,,0.00,0.0,WeatherDisplay:10.37,2013-05-27 04:31:00,
2013-05-27 00:36:00,47.6,40.7,30.29,East,80,0.4,1.1,77,0.00,BKN,,0.00,0.0,WeatherDisplay:10.37,2013-05-27 04:36:00,
2013-05-27 00:41:00,47.6,40.7,30.28,East,80,0.6,2.3,77,0.00,BKN,,0.00,0.0,WeatherDisplay:10.37,2013-05-27 04:41:00,
2013-05-27 00:46:00,47.5,40.6,30.28,East,81,0.0,1.1,77,0.00,BKN,,0.00,0.0,WeatherDisplay:10.37,2013-05-27 04:46:00,
2013-05-27 00:51:00,47.4,40.6,30.28,East,81,0.3,1.1,77,0.00,BKN,,0.00,0.0,WeatherDisplay:10.37,2013-05-27 04:51:00,
2013-05-27 00:56:00,47.3,40.5,30.28,East,81,0.0,0.0,77,0.00,BKN,,0.00,0.0,WeatherDisplay:10.37,2013-05-27 04:56:00,
2013-05-27 01:01:00,47.4,40.6,30.28,East,81,0.7,2.3,77,0.00,BKN,,0.00,0.0,WeatherDisplay:10.37,2013-05-27 05:01:00,
2013-05-27 01:06:00,47.3,40.5,30.28,East,81,1.3,2.3,77,0.00,BKN,,0.00,0.0,WeatherDisplay:10.37,2013-05-27 05:06:00,
2013-05-27 01:11:00,47.3,40.5,30.28,East,81,0.4,2.3,77,0.00,BKN,,0.00,0.0,WeatherDisplay:10.37,2013-05-27 05:11:00,
2013-05-27 01:16:00,47.2,40.7,30.28,East,81,0.2,1.1,78,0.00,BKN,,0.00,0.0,WeatherDisplay:10.37,2013-05-27 05:16:00,
2013-05-27 01:21:00,47.1,40.6,30.28,East,81,1.4,2.3,78,0.00,BKN,,0.00,0.0,WeatherDisplay:10.37,2013-05-27 05:21:00,
2013-05-27 01:26:00,46.9,40.7,30.28,ESE,112,1.6,2.3,79,0.00,BKN,,0.00,0.0,WeatherDisplay:10.37,2013-05-27 05:26:00,
2013-05-27 01:31:00,46.8,40.6,30.28,ESE,112,0.9,2.3,79,0.00,BKN,,0.00,0.0,WeatherDisplay:10.37,2013-05-27 05:31:00,
2013-05-27 01:36:00,46.7,40.5,30.28,ESE,112,0.5,1.1,79,0.00,BKN,,0.00,0.0,WeatherDisplay:10.37,2013-05-27 05:36:00,
2013-05-27 01:41:00,46.5,40.7,30.28,ESE,112,0.9,2.3,80,0.00,BKN,,0.00,0.0,WeatherDisplay:10.37,2013-05-27 05:41:00,
2013-05-27 01:46:00,46.4,40.6,30.28,ESE,112,0.0,0.0,80,0.00,BKN,,0.00,0.0,WeatherDisplay:10.37,2013-05-27 05:46:00,
2013-05-27 01:51:00,46.3,40.8,30.28,ESE,112,1.0,2.3,81,0.00,BKN,,0.00,0.0,WeatherDisplay:10.37,2013-05-27 05:51:00,
2013-05-27 01:56:00,46.3,40.8,30.28,ESE,112,0.8,2.3,81,0.00,BKN,,0.00,0.0,WeatherDisplay:10.37,2013-05-27 05:56:00,
2013-05-27 02:01:00,46.1,40.6,30.28,ESE,112,0.2,1.0,81,0.00,BKN,,0.00,0.0,WeatherDisplay:10.37,2013-05-27 06:01:00,
2013-05-27 02:06:00,45.9,40.4,30.27,ESE,112,0.4,1.1,81,0.00,BKN,,0.00,0.0,WeatherDisplay:10.37,2013-05-27 06:06:00,
2013-05-27 02:11:00,45.7,40.5,30.28,ESE,112,0.6,1.1,82,0.00,BKN,,0.00,0.0,WeatherDisplay:10.37,2013-05-27 06:11:00,
2013-05-27 02:16:00,45.6,40.4,30.27,ESE,112,1.3,2.3,82,0.00,BKN,,0.00,0.0,WeatherDisplay:10.37,2013-05-27 06:16:00,
2013-05-27 02:21:00,45.5,40.6,30.27,ESE,112,1.1,2.3,83,0.00,BKN,,0.00,0.0,WeatherDisplay:10.37,2013-05-27 06:21:00,
2013-05-27 02:26:00,45.4,40.5,30.27,ESE,112,1.9,2.3,83,0.00,BKN,,0.00,0.0,WeatherDisplay:10.37,2013-05-27 06:26:00,
2013-05-27 02:31:00,45.3,40.4,30.27,ESE,112,0.3,1.1,83,0.00,BKN,,0.00,0.0,WeatherDisplay:10.37,2013-05-27 06:31:00,
2013-05-27 02:36:00,45.2,40.3,30.27,ESE,112,0.3,1.1,83,0.00,BKN,,0.00,0.0,WeatherDisplay:10.37,2013-05-27 06:36:00,
2013-05-27 02:41:00,45.0,40.1,30.27,ESE,112,0.7,2.3,83,0.00,BKN,,0.00,0.0,WeatherDisplay:10.37,2013-05-27 06:41:00,
2013-05-27 02:46:00,44.9,40.4,30.27,ESE,112,0.7,1.1,84,0.00,BKN,,0.00,0.0,WeatherDisplay:10.37,2013-05-27 06:46:00,
2013-05-27 02:51:00,44.8,40.3,30.27,ESE,112,0.9,1.1,84,0.00,BKN,,0.00,0.0,WeatherDisplay:10.37,2013-05-27 06:51:00,
2013-05-27 02:56:00,44.6,40.4,30.27,ESE,112,0.9,1.1,85,0.00,BKN,,0.00,0.0,WeatherDisplay:10.37,2013-05-27 06:56:00,
2013-05-27 03:01:00,44.5,40.3,30.27,ESE,112,1.2,2.3,85,0.00,SCT,,0.00,0.0,WeatherDisplay:10.37,2013-05-27 07:01:00,
2013-05-27 03:06:00,44.3,40.1,30.27,ESE,112,1.0,2.3,85,0.00,SCT,,0.00,0.0,WeatherDisplay:10.37,2013-05-27 07:06:00,
2013-05-27 03:11:00,44.3,40.4,30.27,ESE,112,0.2,1.1,86,0.00,SCT,,0.00,0.0,WeatherDisplay:10.37,2013-05-27 07:11:00,
2013-05-27 03:16:00,44.1,40.2,30.27,ESE,112,0.9,2.3,86,0.00,SCT,,0.00,0.0,WeatherDisplay:10.37,2013-05-27 07:16:00,
2013-05-27 03:21:00,44.0,40.1,30.27,ESE,112,1.4,2.3,86,0.00,SCT,,0.00,0.0,WeatherDisplay:10.37,2013-05-27 07:21:00,
2013-05-27 03:26:00,43.9,40.0,30.27,ESE,112,1.4,2.3,86,0.00,SCT,,0.00,0.0,WeatherDisplay:10.37,2013-05-27 07:26:00,
2013-05-27 03:31:00,43.9,40.0,30.26,ESE,112,1.1,2.3,86,0.00,SCT,,0.00,0.0,WeatherDisplay:10.37,2013-05-27 07:31:00,
2013-05-27 03:36:00,43.8,39.9,30.27,ESE,112,1.4,2.3,86,0.00,SCT,,0.00,0.0,WeatherDisplay:10.37,2013-05-27 07:36:00,
2013-05-27 03:41:00,43.8,39.9,30.26,ESE,112,1.3,2.3,86,0.00,SCT,,0.00,0.0,WeatherDisplay:10.37,2013-05-27 07:41:00,
2013-05-27 03:46:00,43.7,39.5,30.26,ESE,112,1.0,2.3,85,0.00,SCT,,0.00,0.0,WeatherDisplay:10.37,2013-05-27 07:46:00,
2013-05-27 03:51:00,43.6,39.4,30.26,ESE,112,0.4,1.1,85,0.00,SCT,,0.00,0.0,WeatherDisplay:10.37,2013-05-27 07:51:00,
2013-05-27 03:56:00,43.4,39.2,30.26,ESE,112,1.4,2.3,85,0.00,SCT,,0.00,0.0,WeatherDisplay:10.37,2013-05-27 07:56:00,
2013-05-27 04:01:00,43.4,39.2,30.26,ESE,112,1.3,2.3,85,0.00,SCT,,0.00,0.0,WeatherDisplay:10.37,2013-05-27 08:01:00,
2013-05-27 04:06:00,43.4,39.2,30.26,ESE,112,1.9,2.3,85,0.00,SCT,,0.00,0.0,WeatherDisplay:10.37,2013-05-27 08:06:00,
2013-05-27 04:11:00,43.4,39.2,30.26,SE,131,1.8,3.5,85,0.00,SCT,,0.00,0.0,WeatherDisplay:10.37,2013-05-27 08:11:00,
2013-05-27 04:16:00,43.4,39.2,30.25,SE,130,1.6,2.3,85,0.00,SCT,,0.00,0.0,WeatherDisplay:10.37,2013-05-27 08:16:00,
2013-05-27 04:21:00,43.4,38.9,30.25,ESE,121,2.1,3.5,84,0.00,SCT,,0.00,0.0,WeatherDisplay:10.37,2013-05-27 08:21:00,
2013-05-27 04:26:00,43.4,38.9,30.25,ESE,121,2.0,3.5,84,0.00,SCT,,0.00,0.0,WeatherDisplay:10.37,2013-05-27 08:26:00,
2013-05-27 04:31:00,43.5,39.0,30.25,ESE,121,1.1,2.3,84,0.00,SCT,,0.00,0.0,WeatherDisplay:10.37,2013-05-27 08:31:00,
2013-05-27 04:36:00,43.4,38.9,30.26,ESE,121,1.0,2.3,84,0.00,SCT,,0.00,0.0,WeatherDisplay:10.37,2013-05-27 08:36:00,
2013-05-27 04:41:00,43.4,38.9,30.26,ESE,121,0.9,1.1,84,0.00,SCT,,0.00,0.0,WeatherDisplay:10.37,2013-05-27 08:41:00,
2013-05-27 04:46:00,43.3,38.8,30.26,ESE,121,0.7,2.3,84,0.00,SCT,,0.00,0.0,WeatherDisplay:10.37,2013-05-27 08:46:00,
2013-05-27 04:51:00,43.2,39.0,30.26,ESE,121,1.1,2.3,85,0.00,SCT,,0.00,0.0,WeatherDisplay:10.37,2013-05-27 08:51:00,
2013-05-27 04:56:00,43.0,38.8,30.26,ESE,121,1.4,2.3,85,0.00,SCT,,0.00,0.0,WeatherDisplay:10.37,2013-05-27 08:56:00,
2013-05-27 05:01:00,43.0,38.8,30.26,ESE,121,0.5,1.1,85,0.00,BKN,,0.00,0.0,WeatherDisplay:10.37,2013-05-27 09:01:00,
2013-05-27 05:06:00,42.9,39.0,30.26,ESE,121,0.9,2.0,86,0.00,BKN,,0.00,0.0,WeatherDisplay:10.37,2013-05-27 09:06:00,
2013-05-27 05:11:00,42.8,38.9,30.26,ESE,121,1.5,2.3,86,0.00,BKN,,0.00,0.0,WeatherDisplay:10.37,2013-05-27 09:11:00,
2013-05-27 05:16:00,42.7,38.8,30.26,ESE,121,0.9,1.1,86,0.00,BKN,,0.00,0.0,WeatherDisplay:10.37,2013-05-27 09:16:00,
2013-05-27 05:21:00,42.6,39.0,30.26,ESE,121,1.2,3.5,87,0.00,BKN,,0.00,0.0,WeatherDisplay:10.37,2013-05-27 09:21:00,
2013-05-27 05:26:00,42.6,39.0,30.26,ESE,121,1.4,2.3,87,0.00,BKN,,0.00,0.0,WeatherDisplay:10.37,2013-05-27 09:26:00,
2013-05-27 05:31:00,42.5,38.9,30.26,ESE,121,0.8,1.1,87,0.00,BKN,,0.00,0.0,WeatherDisplay:10.37,2013-05-27 09:31:00,
2013-05-27 05:36:00,42.5,38.9,30.26,ESE,121,1.2,2.3,87,0.00,BKN,,0.00,0.0,WeatherDisplay:10.37,2013-05-27 09:36:00,
2013-05-27 05:41:00,42.4,38.8,30.26,ESE,121,1.3,2.3,87,0.00,BKN,,0.00,0.0,WeatherDisplay:10.37,2013-05-27 09:41:00,
2013-05-27 05:46:00,42.5,38.9,30.26,ESE,121,1.3,2.3,87,0.00,BKN,,0.00,0.0,WeatherDisplay:10.37,2013-05-27 09:46:00,
2013-05-27 05:51:00,42.4,38.8,30.26,ESE,121,1.1,2.3,87,0.00,BKN,,0.00,0.0,WeatherDisplay:10.37,2013-05-27 09:51:00,
2013-05-27 05:56:00,42.4,38.8,30.26,ESE,121,1.4,2.3,87,0.00,BKN,,0.00,5.0,WeatherDisplay:10.37,2013-05-27 09:56:00,
2013-05-27 06:01:00,42.3,38.7,30.26,ESE,121,2.0,3.5,87,0.00,BKN,,0.00,5.0,WeatherDisplay:10.37,2013-05-27 10:01:00,
2013-05-27 06:06:00,42.3,38.7,30.26,ESE,121,1.3,2.3,87,0.00,BKN,,0.00,9.0,WeatherDisplay:10.37,2013-05-27 10:06:00,
2013-05-27 06:11:00,42.3,38.7,30.26,ESE,121,1.3,2.3,87,0.00,BKN,,0.00,14.0,WeatherDisplay:10.37,2013-05-27 10:11:00,
2013-05-27 06:16:00,42.4,38.8,30.26,ESE,121,1.5,2.3,87,0.00,BKN,,0.00,18.0,WeatherDisplay:10.37,2013-05-27 10:16:00,
2013-05-27 06:21:00,42.5,38.6,30.26,ESE,121,1.6,3.5,86,0.00,BKN,,0.00,25.0,WeatherDisplay:10.37,2013-05-27 10:21:00,
2013-05-27 06:26:00,42.8,38.9,30.26,ESE,121,1.3,2.3,86,0.00,BKN,,0.00,30.0,WeatherDisplay:10.37,2013-05-27 10:26:00,
2013-05-27 06:31:00,43.1,38.9,30.26,ESE,121,1.3,2.3,85,0.00,BKN,,0.00,33.0,WeatherDisplay:10.37,2013-05-27 10:31:00,
2013-05-27 06:36:00,43.3,39.1,30.26,ESE,121,1.2,2.3,85,0.00,BKN,,0.00,39.0,WeatherDisplay:10.37,2013-05-27 10:36:00,
2013-05-27 06:41:00,43.7,39.2,30.26,ESE,121,1.4,2.3,84,0.00,BKN,,0.00,44.0,WeatherDisplay:10.37,2013-05-27 10:41:00,
2013-05-27 06:46:00,44.0,39.5,30.26,ESE,121,1.4,2.3,84,0.00,BKN,,0.00,49.0,WeatherDisplay:10.37,2013-05-27 10:46:00,
2013-05-27 06:51:00,44.3,39.5,30.26,ESE,121,0.5,1.1,83,0.00,BKN,,0.00,58.0,WeatherDisplay:10.37,2013-05-27 10:51:00,
2013-05-27 06:56:00,44.7,39.9,30.26,ESE,121,0.9,2.3,83,0.00,BKN,,0.00,65.0,WeatherDisplay:10.37,2013-05-27 10:56:00,
2013-05-27 07:01:00,45.2,39.7,30.26,ESE,121,1.5,2.3,81,0.00,BKN,,0.00,72.0,WeatherDisplay:10.37,2013-05-27 11:01:00,
2013-05-27 07:06:00,45.7,40.2,30.26,ESE,121,1.2,3.5,81,0.00,BKN,,0.00,79.0,WeatherDisplay:10.37,2013-05-27 11:06:00,
2013-05-27 07:11:00,46.3,40.1,30.26,ESE,121,1.2,2.3,79,0.00,BKN,,0.00,83.0,WeatherDisplay:10.37,2013-05-27 11:11:00,
2013-05-27 07:16:00,47.0,40.8,30.27,ESE,121,0.4,2.3,79,0.00,BKN,,0.00,91.0,WeatherDisplay:10.37,2013-05-27 11:16:00,
2013-05-27 07:21:00,47.6,40.7,30.27,ESE,121,1.0,2.3,77,0.00,BKN,,0.00,102.0,WeatherDisplay:10.37,2013-05-27 11:21:00,
2013-05-27 07:26:00,48.4,40.8,30.27,ESE,121,1.1,2.3,75,0.00,BKN,,0.00,148.0,WeatherDisplay:10.37,2013-05-27 11:26:00,
2013-05-27 07:31:00,49.1,40.8,30.27,ESE,117,2.7,3.5,73,0.00,BKN,,0.00,160.0,WeatherDisplay:10.37,2013-05-27 11:31:00,
2013-05-27 07:36:00,49.6,40.6,30.26,ESE,119,1.1,2.3,71,0.00,BKN,,0.00,179.0,WeatherDisplay:10.37,2013-05-27 11:36:00,
2013-05-27 07:41:00,50.2,41.2,30.27,ESE,119,1.3,2.3,71,0.00,BKN,,0.00,199.0,WeatherDisplay:10.37,2013-05-27 11:41:00,
2013-05-27 07:46:00,50.8,41.0,30.27,ESE,119,1.5,2.3,69,0.00,BKN,,0.00,200.0,WeatherDisplay:10.37,2013-05-27 11:46:00,
2013-05-27 07:51:00,51.4,41.6,30.27,ESE,119,1.4,2.3,69,0.00,BKN,,0.00,206.0,WeatherDisplay:10.37,2013-05-27 11:51:00,
2013-05-27 07:56:00,52.2,41.6,30.27,ESE,119,0.9,2.3,67,0.00,BKN,,0.00,244.0,WeatherDisplay:10.37,2013-05-27 11:56:00,
2013-05-27 08:01:00,52.9,41.0,30.26,ESE,119,1.9,3.5,64,0.00,BKN,,0.00,253.0,WeatherDisplay:10.37,2013-05-27 12:01:00,
2013-05-27 08:06:00,53.6,41.3,30.27,ESE,119,0.7,3.0,63,0.00,BKN,,0.00,272.0,WeatherDisplay:10.37,2013-05-27 12:06:00,
2013-05-27 08:11:00,54.1,40.5,30.27,SE,127,2.5,4.0,60,0.00,BKN,,0.00,274.0,WeatherDisplay:10.37,2013-05-27 12:11:00,
2013-05-27 08:16:00,54.5,40.5,30.27,South,182,1.7,3.5,59,0.00,BKN,,0.00,274.0,WeatherDisplay:10.37,2013-05-27 12:16:00,
2013-05-27 08:21:00,54.9,41.7,30.27,SSE,165,0.7,2.3,61,0.00,BKN,,0.00,272.0,WeatherDisplay:10.37,2013-05-27 12:21:00,
2013-05-27 08:26:00,55.3,39.9,30.27,South,190,3.7,4.6,56,0.00,BKN,,0.00,271.0,WeatherDisplay:10.37,2013-05-27 12:26:00,
2013-05-27 08:31:00,55.5,40.0,30.27,South,176,2.2,3.5,56,0.00,BKN,,0.00,276.0,WeatherDisplay:10.37,2013-05-27 12:31:00,
2013-05-27 08:36:00,56.1,41.1,30.27,South,176,0.5,1.1,57,0.00,BKN,,0.00,301.0,WeatherDisplay:10.37,2013-05-27 12:36:00,
2013-05-27 08:41:00,56.8,39.8,30.27,SE,130,2.1,3.5,53,0.00,BKN,,0.00,302.0,WeatherDisplay:10.37,2013-05-27 12:41:00,
2013-05-27 08:46:00,57.0,38.5,30.27,South,190,3.4,4.6,50,0.00,BKN,,0.00,320.0,WeatherDisplay:10.37,2013-05-27 12:46:00,
2013-05-27 08:51:00,57.6,41.1,30.27,South,186,3.8,4.6,54,0.00,BKN,,0.00,341.0,WeatherDisplay:10.37,2013-05-27 12:51:00,
2013-05-27 08:56:00,57.7,40.7,30.26,SE,142,2.5,4.6,53,0.00,BKN,,0.00,364.0,WeatherDisplay:10.37,2013-05-27 12:56:00,
2013-05-27 09:01:00,58.1,39.5,30.26,South,172,4.3,5.8,50,0.00,OVC,,0.00,360.0,WeatherDisplay:10.37,2013-05-27 13:01:00,
2013-05-27 09:06:00,58.0,40.0,30.27,SSE,159,4.1,6.0,51,0.00,OVC,,0.00,251.0,WeatherDisplay:10.37,2013-05-27 13:06:00,
2013-05-27 09:11:00,58.0,39.5,30.27,South,191,3.5,7.0,50,0.00,OVC,,0.00,264.0,WeatherDisplay:10.37,2013-05-27 13:11:00,
2013-05-27 09:16:00,58.1,40.1,30.26,SSW,203,4.0,6.9,51,0.00,OVC,,0.00,230.0,WeatherDisplay:10.37,2013-05-27 13:16:00,
2013-05-27 09:21:00,58.3,39.7,30.26,South,180,4.6,8.1,50,0.00,OVC,,0.00,234.0,WeatherDisplay:10.37,2013-05-27 13:21:00,
2013-05-27 09:26:00,58.3,39.7,30.26,SSE,165,4.0,5.0,50,0.00,OVC,,0.00,239.0,WeatherDisplay:10.37,2013-05-27 13:26:00,
2013-05-27 09:31:00,58.3,39.2,30.27,SSE,166,3.7,5.8,49,0.00,OVC,,0.00,244.0,WeatherDisplay:10.37,2013-05-27 13:31:00,
2013-05-27 09:36:00,58.4,38.8,30.27,South,173,3.9,5.8,48,0.00,OVC,,0.00,229.0,WeatherDisplay:10.37,2013-05-27 13:36:00,
2013-05-27 09:41:00,58.5,39.9,30.26,SE,146,1.9,4.6,50,0.00,OVC,,0.00,258.0,WeatherDisplay:10.37,2013-05-27 13:41:00,
2013-05-27 09:46:00,58.9,39.2,30.27,SSW,194,4.0,4.6,48,0.00,OVC,,0.00,241.0,WeatherDisplay:10.37,2013-05-27 13:46:00,
2013-05-27 09:51:00,58.8,41.2,30.27,South,183,1.2,3.5,52,0.00,OVC,,0.00,178.0,WeatherDisplay:10.37,2013-05-27 13:51:00,
2013-05-27 09:56:00,58.7,39.0,30.27,South,175,5.4,6.9,48,0.00,OVC,,0.00,153.0,WeatherDisplay:10.37,2013-05-27 13:56:00,
2013-05-27 10:01:00,58.5,38.9,30.26,South,185,3.6,6.9,48,0.00,OVC,,0.00,174.0,WeatherDisplay:10.37,2013-05-27 14:01:00,
2013-05-27 10:06:00,58.3,37.6,30.27,SSE,161,5.4,9.2,46,0.00,OVC,,0.00,162.0,WeatherDisplay:10.37,2013-05-27 14:06:00,
2013-05-27 10:11:00,58.1,37.4,30.26,SSW,193,3.1,4.6,46,0.00,OVC,,0.00,169.0,WeatherDisplay:10.37,2013-05-27 14:11:00,
2013-05-27 10:16:00,58.1,38.0,30.26,South,182,4.6,5.8,47,0.00,OVC,,0.00,188.0,WeatherDisplay:10.37,2013-05-27 14:16:00,
2013-05-27 10:21:00,58.1,38.5,30.26,SSW,194,2.3,5.8,48,0.00,OVC,,0.00,171.0,WeatherDisplay:10.37,2013-05-27 14:21:00,
2013-05-27 10:26:00,58.1,39.0,30.26,South,172,4.3,6.9,49,0.00,OVC,,0.00,137.0,WeatherDisplay:10.37,2013-05-27 14:26:00,
2013-05-27 10:31:00,57.8,40.3,30.26,South,188,1.3,2.3,52,0.00,OVC,,0.00,125.0,WeatherDisplay:10.37,2013-05-27 14:31:00,
2013-05-27 10:36:00,57.8,38.8,30.26,South,178,2.3,5.0,49,0.00,OVC,,0.00,121.0,WeatherDisplay:10.37,2013-05-27 14:36:00,
2013-05-27 10:41:00,57.8,39.3,30.26,SSW,201,2.9,3.5,50,0.00,OVC,,0.00,141.0,WeatherDisplay:10.37,2013-05-27 14:41:00,
2013-05-27 10:46:00,57.8,39.8,30.26,South,172,4.0,6.9,51,0.00,OVC,,0.00,169.0,WeatherDisplay:10.37,2013-05-27 14:46:00,
2013-05-27 10:51:00,58.1,39.0,30.26,SSE,163,2.1,3.5,49,0.00,OVC,,0.00,190.0,WeatherDisplay:10.37,2013-05-27 14:51:00,
2013-05-27 10:56:00,58.2,39.1,30.26,SSW,198,1.9,3.5,49,0.00,OVC,,0.00,158.0,WeatherDisplay:10.37,2013-05-27 14:56:00,
2013-05-27 11:01:00,58.3,41.2,30.26,SSE,167,1.8,3.5,53,0.00,OVC,,0.00,156.0,WeatherDisplay:10.37,2013-05-27 15:01:00,
2013-05-27 11:06:00,58.5,39.4,30.26,SSE,160,4.5,8.1,49,0.00,OVC,,0.00,178.0,WeatherDisplay:10.37,2013-05-27 15:06:00,
2013-05-27 11:11:00,58.6,40.5,30.25,SSE,161,3.5,4.6,51,0.00,OVC,,0.00,190.0,WeatherDisplay:10.37,2013-05-27 15:11:00,
2013-05-27 11:16:00,58.7,39.6,30.25,SSE,155,4.2,9.2,49,0.00,OVC,,0.00,156.0,WeatherDisplay:10.37,2013-05-27 15:16:00,
2013-05-27 11:21:00,58.6,40.0,30.25,SSE,150,2.7,7.0,50,0.00,OVC,,0.00,132.0,WeatherDisplay:10.37,2013-05-27 15:21:00,
2013-05-27 11:26:00,58.4,39.3,30.25,SSE,156,4.0,5.8,49,0.00,OVC,,0.00,134.0,WeatherDisplay:10.37,2013-05-27 15:26:00,
2013-05-27 11:31:00,58.2,40.1,30.25,SW,219,2.6,3.5,51,0.00,OVC,,0.00,123.0,WeatherDisplay:10.37,2013-05-27 15:31:00,
2013-05-27 11:36:00,58.2,39.6,30.25,SSW,192,3.2,6.0,50,0.00,OVC,,0.00,123.0,WeatherDisplay:10.37,2013-05-27 15:36:00,
2013-05-27 11:41:00,58.3,39.2,30.25,SE,136,4.6,6.9,49,0.00,OVC,,0.00,139.0,WeatherDisplay:10.37,2013-05-27 15:41:00,
2013-05-27 11:46:00,58.4,39.3,30.26,South,191,4.1,8.0,49,0.00,OVC,,0.00,144.0,WeatherDisplay:10.37,2013-05-27 15:46:00,
2013-05-27 11:51:00,58.4,39.8,30.26,South,191,4.6,7.0,50,0.00,OVC,,0.00,130.0,WeatherDisplay:10.37,2013-05-27 15:51:00,
2013-05-27 11:56:00,58.3,40.2,30.25,SSE,159,2.0,3.5,51,0.00,OVC,,0.00,128.0,WeatherDisplay:10.37,2013-05-27 15:56:00,
2013-05-27 12:01:00,58.2,39.6,30.25,South,183,6.0,8.1,50,0.00,OVC,,0.00,118.0,WeatherDisplay:10.37,2013-05-27 16:01:00,
2013-05-27 12:06:00,58.0,41.0,30.25,SSW,198,3.5,5.8,53,0.00,OVC,,0.00,113.0,WeatherDisplay:10.37,2013-05-27 16:06:00,
2013-05-27 12:11:00,57.6,41.1,30.26,South,189,3.8,5.8,54,0.00,OVC,,0.00,114.0,WeatherDisplay:10.37,2013-05-27 16:11:00,
2013-05-27 12:16:00,57.4,42.3,30.25,South,175,1.1,3.5,57,0.00,OVC,,0.00,132.0,WeatherDisplay:10.37,2013-05-27 16:16:00,
2013-05-27 12:21:00,57.3,43.1,30.25,South,189,5.0,8.1,59,0.00,OVC,,0.00,144.0,WeatherDisplay:10.37,2013-05-27 16:21:00,
2013-05-27 12:26:00,57.0,43.2,30.25,SSE,166,4.5,8.1,60,0.00,OVC,,0.00,192.0,WeatherDisplay:10.37,2013-05-27 16:26:00,
2013-05-27 12:31:00,56.9,45.7,30.26,South,180,2.4,4.6,66,0.00,OVC,,0.00,213.0,WeatherDisplay:10.37,2013-05-27 16:31:00,
2013-05-27 12:36:00,56.8,45.6,30.25,South,178,4.7,8.1,66,0.00,OVC,,0.00,225.0,WeatherDisplay:10.37,2013-05-27 16:36:00,
2013-05-27 12:41:00,56.6,44.6,30.25,SSE,167,2.3,6.9,64,0.00,OVC,,0.00,232.0,WeatherDisplay:10.37,2013-05-27 16:41:00,
2013-05-27 12:46:00,56.6,45.8,30.25,South,180,4.8,8.1,67,0.00,OVC,,0.00,220.0,WeatherDisplay:10.37,2013-05-27 16:46:00,
2013-05-27 12:51:00,56.5,44.9,30.25,SSE,161,4.4,5.8,65,0.00,OVC,,0.00,220.0,WeatherDisplay:10.37,2013-05-27 16:51:00,
2013-05-27 12:56:00,56.4,45.6,30.25,South,181,2.9,4.6,67,0.00,OVC,,0.00,192.0,WeatherDisplay:10.37,2013-05-27 16:56:00,
2013-05-27 13:01:00,56.6,46.5,30.24,SSE,154,1.7,3.5,69,0.00,-RA,,0.00,181.0,WeatherDisplay:10.37,2013-05-27 17:01:00,
2013-05-27 13:06:00,56.6,46.5,30.24,South,184,2.5,6.9,69,0.00,-RA,,0.00,213.0,WeatherDisplay:10.37,2013-05-27 17:06:00,
2013-05-27 13:11:00,56.7,46.3,30.23,SSW,192,2.7,6.0,68,0.00,-RA,,0.00,227.0,WeatherDisplay:10.37,2013-05-27 17:11:00,
2013-05-27 13:16:00,56.6,46.5,30.23,SSE,156,6.7,9.2,69,0.00,-RA,,0.00,211.0,WeatherDisplay:10.37,2013-05-27 17:16:00,
2013-05-27 13:21:00,56.7,47.4,30.23,South,174,4.4,8.1,71,0.00,-RA,,0.00,181.0,WeatherDisplay:10.37,2013-05-27 17:21:00,
2013-05-27 13:26:00,56.9,47.2,30.23,SSE,150,4.2,6.0,70,0.00,-RA,,0.00,207.0,WeatherDisplay:10.37,2013-05-27 17:26:00,
2013-05-27 13:31:00,57.1,47.4,30.22,SSW,194,5.4,9.2,70,0.00,-RA,,0.00,176.0,WeatherDisplay:10.37,2013-05-27 17:31:00,
2013-05-27 13:36:00,57.1,47.0,30.22,SSE,153,3.2,5.8,69,0.00,-RA,,0.00,155.0,WeatherDisplay:10.37,2013-05-27 17:36:00,
2013-05-27 13:41:00,57.1,47.8,30.22,SSW,207,4.3,6.0,71,0.00,-RA,,0.00,155.0,WeatherDisplay:10.37,2013-05-27 17:41:00,
2013-05-27 13:46:00,56.9,47.6,30.21,SE,145,3.5,5.8,71,0.00,-RA,,0.00,148.0,WeatherDisplay:10.37,2013-05-27 17:46:00,
2013-05-27 13:51:00,56.4,48.2,30.20,SSE,152,3.3,5.8,74,0.00,-RA,,0.00,142.0,WeatherDisplay:10.37,2013-05-27 17:51:00,
2013-05-27 13:56:00,56.3,48.5,30.20,SSE,164,3.9,6.9,75,0.00,-RA,,0.00,158.0,WeatherDisplay:10.37,2013-05-27 17:56:00,
2013-05-27 14:01:00,55.9,48.4,30.19,SSE,161,5.6,8.1,76,0.00,-RA,,0.00,190.0,WeatherDisplay:10.37,2013-05-27 18:01:00,
2013-05-27 14:06:00,56.0,48.9,30.20,South,186,1.4,4.0,77,0.00,-RA,,0.00,209.0,WeatherDisplay:10.37,2013-05-27 18:06:00,
2013-05-27 14:11:00,56.4,49.6,30.20,SSW,199,3.9,6.0,78,0.00,-RA,,0.00,244.0,WeatherDisplay:10.37,2013-05-27 18:11:00,
2013-05-27 14:16:00,56.5,49.7,30.20,South,175,2.8,4.6,78,0.01,-RA,,0.01,230.0,WeatherDisplay:10.37,2013-05-27 18:16:00,
2013-05-27 14:21:00,56.4,49.6,30.20,SSE,164,3.2,3.5,78,0.01,-RA,,0.01,206.0,WeatherDisplay:10.37,2013-05-27 18:21:00,
2013-05-27 14:26:00,56.4,49.6,30.20,South,184,1.3,3.0,78,0.01,-RA,,0.01,188.0,WeatherDisplay:10.37,2013-05-27 18:26:00,
2013-05-27 14:31:00,56.4,49.6,30.20,South,178,4.0,6.9,78,0.01,-RA,,0.01,181.0,WeatherDisplay:10.37,2013-05-27 18:31:00,
2013-05-27 14:36:00,56.3,49.5,30.20,South,187,3.9,6.9,78,0.01,-RA,,0.01,128.0,WeatherDisplay:10.37,2013-05-27 18:36:00,
2013-05-27 14:41:00,56.4,49.6,30.20,SSE,147,2.0,3.5,78,0.01,-RA,,0.01,111.0,WeatherDisplay:10.37,2013-05-27 18:41:00,
2013-05-27 14:46:00,56.3,49.5,30.20,ESE,111,4.8,6.9,78,0.01,-RA,,0.01,93.0,WeatherDisplay:10.37,2013-05-27 18:46:00,
2013-05-27 14:51:00,56.1,48.3,30.20,SSE,149,2.9,8.1,75,0.01,-RA,,0.01,95.0,WeatherDisplay:10.37,2013-05-27 18:51:00,
2013-05-27 14:56:00,56.0,48.5,30.19,SE,132,2.5,3.5,76,0.01,-RA,,0.01,100.0,WeatherDisplay:10.37,2013-05-27 18:56:00,
2013-05-27 15:01:00,56.1,48.6,30.19,ESE,119,2.7,7.0,76,0.01,-RA,,0.01,105.0,WeatherDisplay:10.37,2013-05-27 19:01:00,
2013-05-27 15:06:00,56.3,49.2,30.19,SE,130,3.5,4.6,77,0.01,-RA,,0.01,113.0,WeatherDisplay:10.37,2013-05-27 19:06:00,
2013-05-27 15:11:00,56.4,49.3,30.19,ESE,113,2.8,4.6,77,0.01,-RA,,0.01,121.0,WeatherDisplay:10.37,2013-05-27 19:11:00,
2013-05-27 15:16:00,56.4,49.3,30.19,ESE,118,3.1,4.0,77,0.00,-RA,,0.01,151.0,WeatherDisplay:10.37,2013-05-27 19:16:00,
2013-05-27 15:21:00,56.7,49.2,30.18,SE,140,2.5,3.5,76,0.00,-RA,,0.01,179.0,WeatherDisplay:10.37,2013-05-27 19:21:00,
2013-05-27 15:26:00,57.2,50.4,30.19,South,172,1.4,4.6,78,0.00,-RA,,0.01,244.0,WeatherDisplay:10.37,2013-05-27 19:26:00,
2013-05-27 15:31:00,57.6,49.0,30.18,East,100,2.3,5.0,73,0.00,-RA,,0.01,343.0,WeatherDisplay:10.37,2013-05-27 19:31:00,
2013-05-27 15:36:00,58.5,50.2,30.19,SSW,195,1.5,3.5,74,0.00,-RA,,0.01,329.0,WeatherDisplay:10.37,2013-05-27 19:36:00,
2013-05-27 15:41:00,58.6,49.6,30.19,East,85,2.6,4.6,72,0.00,-RA,,0.01,234.0,WeatherDisplay:10.37,2013-05-27 19:41:00,
2013-05-27 15:46:00,58.4,49.0,30.19,SSE,156,2.6,4.6,71,0.00,-RA,,0.01,132.0,WeatherDisplay:10.37,2013-05-27 19:46:00,
2013-05-27 15:51:00,58.1,48.4,30.18,ENE,77,4.3,8.1,70,0.00,-RA,,0.01,100.0,WeatherDisplay:10.37,2013-05-27 19:51:00,
2013-05-27 15:56:00,57.9,48.9,30.17,SSE,148,3.5,6.0,72,0.00,-RA,,0.01,93.0,WeatherDisplay:10.37,2013-05-27 19:56:00,
2013-05-27 16:01:00,57.7,48.0,30.17,SSE,158,5.9,8.1,70,0.00,OVC,,0.01,102.0,WeatherDisplay:10.37,2013-05-27 20:01:00,
2013-05-27 16:06:00,57.7,48.4,30.17,SE,126,4.2,5.8,71,0.00,OVC,,0.01,90.0,WeatherDisplay:10.37,2013-05-27 20:06:00,
2013-05-27 16:11:00,57.7,48.4,30.17,SSE,148,3.9,5.8,71,0.00,OVC,,0.01,139.0,WeatherDisplay:10.37,2013-05-27 20:11:00,
2013-05-27 16:16:00,58.0,48.6,30.18,South,178,1.4,3.5,71,0.00,OVC,,0.01,179.0,WeatherDisplay:10.37,2013-05-27 20:16:00,
2013-05-27 16:21:00,58.3,48.9,30.17,South,175,2.6,7.0,71,0.00,OVC,,0.01,223.0,WeatherDisplay:10.37,2013-05-27 20:21:00,
2013-05-27 16:26:00,58.5,48.7,30.18,East,98,2.8,3.5,70,0.00,OVC,,0.01,153.0,WeatherDisplay:10.37,2013-05-27 20:26:00,
2013-05-27 16:31:00,58.7,48.6,30.17,ESE,103,3.9,6.9,69,0.00,OVC,,0.01,167.0,WeatherDisplay:10.37,2013-05-27 20:31:00,
2013-05-27 16:36:00,58.8,48.6,30.16,SSE,165,3.3,8.1,69,0.00,OVC,,0.01,171.0,WeatherDisplay:10.37,2013-05-27 20:36:00,
2013-05-27 16:41:00,58.9,48.7,30.16,East,101,2.5,4.6,69,0.00,OVC,,0.01,146.0,WeatherDisplay:10.37,2013-05-27 20:41:00,
2013-05-27 16:46:00,58.9,48.4,30.17,SE,140,2.7,4.6,68,0.00,OVC,,0.01,116.0,WeatherDisplay:10.37,2013-05-27 20:46:00,
2013-05-27 16:51:00,58.9,49.1,30.17,SSE,161,1.2,2.3,70,0.00,OVC,,0.01,88.0,WeatherDisplay:10.37,2013-05-27 20:51:00,
2013-05-27 16:56:00,58.9,48.7,30.17,ESE,111,3.6,6.9,69,0.00,OVC,,0.01,93.0,WeatherDisplay:10.37,2013-05-27 20:56:00,
2013-05-27 17:01:00,58.8,48.6,30.17,SE,146,2.9,3.5,69,0.00,OVC,,0.01,60.0,WeatherDisplay:10.37,2013-05-27 21:01:00,
2013-05-27 17:06:00,58.6,48.5,30.17,SE,130,2.3,3.5,69,0.00,OVC,,0.01,72.0,WeatherDisplay:10.37,2013-05-27 21:06:00,
2013-05-27 17:11:00,58.6,48.1,30.16,ESE,108,4.7,10.0,68,0.00,OVC,,0.01,84.0,WeatherDisplay:10.37,2013-05-27 21:11:00,
2013-05-27 17:16:00,58.5,48.0,30.16,ESE,122,4.8,8.1,68,0.00,OVC,,0.01,81.0,WeatherDisplay:10.37,2013-05-27 21:16:00,
2013-05-27 17:21:00,58.4,48.3,30.16,SSW,201,3.6,6.9,69,0.00,OVC,,0.01,67.0,WeatherDisplay:10.37,2013-05-27 21:21:00,
2013-05-27 17:26:00,58.3,48.6,30.15,SE,126,3.0,4.6,70,0.00,OVC,,0.01,58.0,WeatherDisplay:10.37,2013-05-27 21:26:00,
2013-05-27 17:31:00,58.2,48.5,30.15,ESE,111,4.4,8.1,70,0.00,OVC,,0.01,76.0,WeatherDisplay:10.37,2013-05-27 21:31:00,
2013-05-27 17:36:00,58.1,49.1,30.14,SSE,159,4.0,7.0,72,0.00,OVC,,0.01,83.0,WeatherDisplay:10.37,2013-05-27 21:36:00,
2013-05-27 17:41:00,58.0,49.4,30.12,ESE,116,8.1,11.5,73,0.00,OVC,,0.01,90.0,WeatherDisplay:10.37,2013-05-27 21:41:00,
2013-05-27 17:46:00,57.8,48.8,30.12,ESE,117,6.9,10.4,72,0.00,OVC,,0.01,97.0,WeatherDisplay:10.37,2013-05-27 21:46:00,
2013-05-27 17:51:00,57.8,48.8,30.13,SE,126,2.7,5.8,72,0.00,OVC,,0.01,90.0,WeatherDisplay:10.37,2013-05-27 21:51:00,
2013-05-27 17:56:00,57.9,48.9,30.13,SE,127,2.3,5.0,72,0.00,OVC,,0.01,76.0,WeatherDisplay:10.37,2013-05-27 21:56:00,
2013-05-27 18:01:00,58.0,49.0,30.13,East,96,5.0,8.1,72,0.00,OVC,,0.01,84.0,WeatherDisplay:10.37,2013-05-27 22:01:00,
2013-05-27 18:06:00,58.1,49.1,30.13,SE,134,5.6,6.9,72,0.00,OVC,,0.01,81.0,WeatherDisplay:10.37,2013-05-27 22:06:00,
2013-05-27 18:11:00,58.1,49.1,30.12,ESE,113,3.1,4.0,72,0.00,OVC,,0.01,74.0,WeatherDisplay:10.37,2013-05-27 22:11:00,
2013-05-27 18:16:00,58.1,49.1,30.12,East,99,2.7,5.0,72,0.00,OVC,,0.01,74.0,WeatherDisplay:10.37,2013-05-27 22:16:00,
2013-05-27 18:21:00,58.2,49.2,30.12,East,95,4.2,7.0,72,0.00,OVC,,0.01,62.0,WeatherDisplay:10.37,2013-05-27 22:21:00,
2013-05-27 18:26:00,58.2,48.8,30.12,ESE,108,3.3,5.0,71,0.00,OVC,,0.01,63.0,WeatherDisplay:10.37,2013-05-27 22:26:00,
2013-05-27 18:31:00,58.1,48.7,30.12,SE,126,3.4,6.9,71,0.00,OVC,,0.01,63.0,WeatherDisplay:10.37,2013-05-27 22:31:00,
2013-05-27 18:36:00,58.2,48.8,30.12,East,92,5.2,6.9,71,0.00,OVC,,0.01,53.0,WeatherDisplay:10.37,2013-05-27 22:36:00,
2013-05-27 18:41:00,58.2,48.8,30.12,ESE,123,4.7,7.0,71,0.00,OVC,,0.01,46.0,WeatherDisplay:10.37,2013-05-27 22:41:00,
2013-05-27 18:46:00,58.2,48.5,30.11,ESE,111,5.1,10.4,70,0.00,OVC,,0.01,32.0,WeatherDisplay:10.37,2013-05-27 22:46:00,
2013-05-27 18:51:00,58.1,48.4,30.12,East,94,2.1,5.0,70,0.00,OVC,,0.01,28.0,WeatherDisplay:10.37,2013-05-27 22:51:00,
2013-05-27 18:56:00,58.1,48.4,30.11,SE,136,5.9,8.1,70,0.00,OVC,,0.01,30.0,WeatherDisplay:10.37,2013-05-27 22:56:00,
2013-05-27 19:01:00,58.1,48.4,30.11,ESE,105,2.8,4.6,70,0.00,OVC,,0.01,28.0,WeatherDisplay:10.37,2013-05-27 23:01:00,
2013-05-27 19:06:00,58.2,48.5,30.11,SE,125,2.2,4.6,70,0.00,OVC,,0.01,28.0,WeatherDisplay:10.37,2013-05-27 23:06:00,
2013-05-27 19:11:00,58.2,48.5,30.10,ESE,115,4.1,5.8,70,0.00,OVC,,0.01,28.0,WeatherDisplay:10.37,2013-05-27 23:11:00,
2013-05-27 19:16:00,58.2,48.5,30.10,ESE,103,4.8,7.0,70,0.00,OVC,,0.01,26.0,WeatherDisplay:10.37,2013-05-27 23:16:00,
2013-05-27 19:21:00,58.2,48.5,30.10,SE,139,4.5,6.9,70,0.00,OVC,,0.01,21.0,WeatherDisplay:10.37,2013-05-27 23:21:00,
2013-05-27 19:26:00,58.2,48.1,30.10,South,169,7.5,11.5,69,0.00,OVC,,0.01,21.0,WeatherDisplay:10.37,2013-05-27 23:26:00,
2013-05-27 19:31:00,58.1,48.0,30.10,ESE,114,4.8,11.0,69,0.00,OVC,,0.01,19.0,WeatherDisplay:10.37,2013-05-27 23:31:00,
2013-05-27 19:36:00,58.1,48.4,30.10,ESE,114,3.6,7.0,70,0.00,OVC,,0.01,14.0,WeatherDisplay:10.37,2013-05-27 23:36:00,
2013-05-27 19:41:00,58.1,48.4,30.11,SSE,161,4.1,6.9,70,0.00,OVC,,0.01,16.0,WeatherDisplay:10.37,2013-05-27 23:41:00,
2013-05-27 19:46:00,58.1,48.4,30.11,SE,144,5.3,10.4,70,0.00,OVC,,0.01,14.0,WeatherDisplay:10.37,2013-05-27 23:46:00,
2013-05-27 19:51:00,58.1,48.4,30.10,ESE,123,4.8,8.0,70,0.00,OVC,,0.01,14.0,WeatherDisplay:10.37,2013-05-27 23:51:00,
2013-05-27 19:56:00,58.0,49.0,30.10,ESE,123,3.4,8.1,72,0.00,OVC,,0.01,11.0,WeatherDisplay:10.37,2013-05-27 23:56:00,
2013-05-27 20:01:00,57.9,48.9,30.10,SSE,154,2.3,4.6,72,0.00,-RA,,0.01,9.0,WeatherDisplay:10.37,2013-05-28 00:01:00,
2013-05-27 20:06:00,57.9,48.9,30.10,ENE,64,3.5,5.8,72,0.00,-RA,,0.01,7.0,WeatherDisplay:10.37,2013-05-28 00:06:00,
2013-05-27 20:11:00,57.8,48.8,30.10,SE,141,3.4,7.0,72,0.00,-RA,,0.01,7.0,WeatherDisplay:10.37,2013-05-28 00:11:00,
2013-05-27 20:16:00,57.7,49.1,30.09,SSW,192,3.7,5.0,73,0.00,-RA,,0.01,5.0,WeatherDisplay:10.37,2013-05-28 00:16:00,
2013-05-27 20:21:00,57.6,49.4,30.09,ESE,107,4.6,8.1,74,0.00,-RA,,0.01,0.0,WeatherDisplay:10.37,2013-05-28 00:21:00,
2013-05-27 20:26:00,57.5,49.3,30.09,SE,125,4.0,5.8,74,0.00,-RA,,0.01,0.0,WeatherDisplay:10.37,2013-05-28 00:26:00,
2013-05-27 20:31:00,57.4,49.5,30.09,SE,130,3.2,3.5,75,0.00,-RA,,0.01,0.0,WeatherDisplay:10.37,2013-05-28 00:31:00,
2013-05-27 20:36:00,57.3,49.8,30.09,East,83,5.9,10.4,76,0.00,-RA,,0.01,0.0,WeatherDisplay:10.37,2013-05-28 00:36:00,
2013-05-27 20:41:00,57.2,49.3,30.08,East,100,8.5,12.7,75,0.00,-RA,,0.01,0.0,WeatherDisplay:10.37,2013-05-28 00:41:00,
2013-05-27 20:46:00,57.2,49.7,30.08,SSE,153,4.0,6.0,76,0.00,-RA,,0.01,0.0,WeatherDisplay:10.37,2013-05-28 00:46:00,
2013-05-27 20:51:00,57.2,49.7,30.08,SSE,148,8.4,13.8,76,0.00,-RA,,0.01,0.0,WeatherDisplay:10.37,2013-05-28 00:51:00,
2013-05-27 20:56:00,57.1,50.0,30.08,SSE,159,3.2,4.6,77,0.00,-RA,,0.01,0.0,WeatherDisplay:10.37,2013-05-28 00:56:00,
2013-05-27 21:01:00,57.1,50.0,30.08,SE,126,4.5,8.1,77,0.00,-RA,,0.01,0.0,WeatherDisplay:10.37,2013-05-28 01:01:00,
2013-05-27 21:06:00,57.0,49.9,30.07,SE,124,2.6,8.0,77,0.00,-RA,,0.01,0.0,WeatherDisplay:10.37,2013-05-28 01:06:00,
2013-05-27 21:11:00,57.0,49.5,30.08,SE,139,4.2,8.0,76,0.00,-RA,,0.01,0.0,WeatherDisplay:10.37,2013-05-28 01:11:00,
2013-05-27 21:16:00,57.1,49.6,30.08,SE,135,5.5,9.2,76,0.00,-RA,,0.01,0.0,WeatherDisplay:10.37,2013-05-28 01:16:00,
2013-05-27 21:21:00,57.1,49.6,30.08,ESE,123,3.0,10.0,76,0.00,-RA,,0.01,0.0,WeatherDisplay:10.37,2013-05-28 01:21:00,
2013-05-27 21:26:00,57.1,49.6,30.08,ESE,103,2.0,3.5,76,0.00,-RA,,0.01,0.0,WeatherDisplay:10.37,2013-05-28 01:26:00,
2013-05-27 21:31:00,57.0,50.5,30.08,South,185,2.9,4.0,79,0.00,-RA,,0.01,0.0,WeatherDisplay:10.37,2013-05-28 01:31:00,
2013-05-27 21:36:00,56.8,50.4,30.09,South,169,1.1,3.5,79,0.00,-RA,,0.01,0.0,WeatherDisplay:10.37,2013-05-28 01:36:00,
2013-05-27 21:41:00,56.6,50.2,30.10,SSE,157,3.5,5.8,79,0.01,-RA,,0.02,0.0,WeatherDisplay:10.37,2013-05-28 01:41:00,
2013-05-27 21:46:00,56.5,50.4,30.10,SE,128,1.7,3.5,80,0.01,-RA,,0.02,0.0,WeatherDisplay:10.37,2013-05-28 01:46:00,
2013-05-27 21:51:00,56.2,51.1,30.09,South,175,1.5,3.5,83,0.01,-RA,,0.02,0.0,WeatherDisplay:10.37,2013-05-28 01:51:00,
2013-05-27 21:56:00,55.9,51.1,30.09,ESE,117,2.0,3.5,84,0.03,-RA,,0.04,0.0,WeatherDisplay:10.37,2013-05-28 01:56:00,
2013-05-27 22:01:00,55.6,50.8,30.08,SE,125,2.2,4.0,84,0.03,RA,,0.04,0.0,WeatherDisplay:10.37,2013-05-28 02:01:00,
2013-05-27 22:06:00,55.4,51.0,30.07,ESE,119,3.2,8.1,85,0.03,OVC,,0.04,0.0,WeatherDisplay:10.37,2013-05-28 02:06:00,
2013-05-27 22:11:00,55.2,50.8,30.07,SSE,152,5.6,10.0,85,0.03,OVC,,0.05,0.0,WeatherDisplay:10.37,2013-05-28 02:11:00,
2013-05-27 22:16:00,55.1,51.0,30.07,SSE,153,4.9,15.0,86,0.04,RA,,0.05,0.0,WeatherDisplay:10.37,2013-05-28 02:16:00,
2013-05-27 22:21:00,55.0,50.9,30.07,ESE,103,3.2,9.2,86,0.04,RA,,0.05,0.0,WeatherDisplay:10.37,2013-05-28 02:21:00,
2013-05-27 22:26:00,54.9,51.1,30.07,ESE,114,4.2,9.2,87,0.05,RA,,0.06,0.0,WeatherDisplay:10.37,2013-05-28 02:26:00,
2013-05-27 22:31:00,54.8,51.0,30.07,SSE,155,3.6,11.5,87,0.05,RA,,0.06,0.0,WeatherDisplay:10.37,2013-05-28 02:31:00,
2013-05-27 22:36:00,54.8,51.0,30.06,SE,126,5.3,11.5,87,0.05,OVC,,0.06,0.0,WeatherDisplay:10.37,2013-05-28 02:36:00,
2013-05-27 22:41:00,54.9,51.1,30.07,SSE,148,6.4,10.4,87,0.04,OVC,,0.06,0.0,WeatherDisplay:10.37,2013-05-28 02:41:00,
2013-05-27 22:46:00,54.8,51.3,30.06,SE,128,4.9,9.2,88,0.05,RA,,0.07,0.0,WeatherDisplay:10.37,2013-05-28 02:46:00,
2013-05-27 22:51:00,54.7,51.2,30.07,SE,127,2.9,5.8,88,0.05,RA,,0.07,0.0,WeatherDisplay:10.37,2013-05-28 02:51:00,
2013-05-27 22:56:00,54.7,51.2,30.07,ESE,119,3.6,8.1,88,0.03,OVC,,0.07,0.0,WeatherDisplay:10.37,2013-05-28 02:56:00,
2013-05-27 23:01:00,54.7,51.2,30.06,East,91,4.9,8.1,88,0.04,-RA,,0.08,0.0,WeatherDisplay:10.37,2013-05-28 03:01:00,
2013-05-27 23:06:00,54.7,51.2,30.06,SSE,167,3.3,8.1,88,0.04,-RA,,0.08,0.0,WeatherDisplay:10.37,2013-05-28 03:06:00,
2013-05-27 23:11:00,54.7,51.2,30.06,ESE,114,3.9,8.1,88,0.04,-RA,,0.08,0.0,WeatherDisplay:10.37,2013-05-28 03:11:00,
2013-05-27 23:16:00,54.7,51.2,30.06,SSW,197,5.5,9.2,88,0.03,-RA,,0.08,0.0,WeatherDisplay:10.37,2013-05-28 03:16:00,
2013-05-27 23:21:00,54.8,51.3,30.06,SE,127,3.5,5.8,88,0.03,-RA,,0.08,0.0,WeatherDisplay:10.37,2013-05-28 03:21:00,
2013-05-27 23:26:00,54.8,51.3,30.06,SE,136,5.4,11.0,88,0.02,-RA,,0.08,0.0,WeatherDisplay:10.37,2013-05-28 03:26:00,
2013-05-27 23:31:00,54.8,51.3,30.06,ESE,115,3.9,7.0,88,0.02,-RA,,0.08,0.0,WeatherDisplay:10.37,2013-05-28 03:31:00,
2013-05-27 23:36:00,54.8,51.3,30.06,SE,125,2.7,4.0,88,0.03,-RA,,0.09,0.0,WeatherDisplay:10.37,2013-05-28 03:36:00,
2013-05-27 23:41:00,54.9,51.4,30.05,SE,140,4.5,8.1,88,0.03,-RA,,0.09,0.0,WeatherDisplay:10.37,2013-05-28 03:41:00,
2013-05-27 23:46:00,54.9,51.4,30.05,SE,127,6.5,10.4,88,0.03,-RA,,0.10,0.0,WeatherDisplay:10.37,2013-05-28 03:46:00,
2013-05-27 23:51:00,54.8,51.3,30.05,ESE,105,6.4,10.4,88,0.03,-RA,,0.10,0.0,WeatherDisplay:10.37,2013-05-28 03:51:00,
2013-05-27 23:56:00,54.7,51.5,30.05,SE,126,4.1,7.0,89,0.03,-RA,,0.10,0.0,WeatherDisplay:10.37,2013-05-28 03:56:00,